Kezdőlap
METAR-TAF:

METAR-TAF

Repülőterek :

Vadsø, Norvégia

földrajzi szélesség: 70-04N, földrajzi hosszúság: 029-51E, magasság: 3 m

Jelenlegi meteorológiai megfigyelések

A jelentés 24 perccel ezelõtt készült, 22:50 UTC
Nyugati szél 9 kt
Hőmérséklet -1°C
Páratartalom 80%
Légköri nyomás 1017 hPa
Látótávolság 10 km, vagy több
felhőtlen 1500 m magasságban, és nincs gomolyfelhõ

METAR: ENVD 152250Z 28009KT CAVOK M01/M04 Q1017

Idő: 00:14 (23:14 UTC)

Előrejelzés

A jelentés 3 órával és 14 perccel ezelõtt készült, 20:00 UTC
Az előrejelzés 15-én 21 óra UTC és 15-én 24 óra UTC között érvényes
Nyugat-északnyugati szél 8 kt
Látótávolság 10 km, vagy több
Kevés felhő 2000 lábon
Szórványos felhőzet 4000 lábon

TAF: ENVD 152000Z 1521/1524 29008KT 9999 FEW020 SCT040

Meteorológiai megfigyelések és előrejelzések több, mint 4000 repülőtéren (METAR és TAF jelentéseket).

A térképen piros és sárga pontok jelzik az elérhető meteorológiai állomásokat.

Mozgassa az egeret a pont fölött, hogy megjelenjen az állomás neve.

Azután kattintson az időjárási megfigyelések és előrejelzések megtekintéséhez.

A térkép megváltoztatása: kattintson a fekete keresztel jelölt zöld gombra ráközelítéshez, a vonallal jelölt zöld gombra távolításhoz, vagy a zöld nyilakra a szomszédos térképek eléréséhez.


METAR-TAF: